Terminal Aerodrome Forecast
Issued by NWS

Home | Current Version | Previous Version | Text Only | Print | Product List | Glossary On
Versions: 1 2 3 4 5 6 7 8 9 10 11 12 13 14 15 16 17 18 19 20 21 22 23 24 25 26 27 28 29 30 31
000
FTUS45 KGJT 051125
TAFMTJ
TAF
KMTJ 051125Z 0512/0612 36008KT P6SM VCSH SCT060 BKN070 OVC090
     FM051400 24012KT P6SM SCT050 BKN070
     FM051800 22007KT P6SM VCSH SCT050 BKN080
     FM052100 25012KT P6SM VCTS SCT030CB BKN080
     FM060000 19012G20KT P6SM BKN100
     FM060600 14005KT P6SM BKN100=

USA.gov is the U.S. government's official web portal to all federal, state and local government web resources and services.